createdAt,value
2023-11-30T03:24:28.020Z,67.75
2023-11-30T03:27:01.365Z,68.43
2023-11-30T03:29:32.678Z,61.88
2023-11-30T03:32:03.368Z,65.13
2023-11-30T03:34:33.714Z,68.20
2023-11-30T03:37:04.114Z,69.53
2023-11-30T03:39:34.781Z,75.72
2023-11-30T03:42:08.150Z,70.55
2023-11-30T03:44:38.713Z,68.30
2023-11-30T03:47:09.498Z,73.60
2023-11-30T03:49:39.850Z,75.18
2023-11-30T03:52:10.581Z,77.82
2023-11-30T03:54:41.368Z,75.53
2023-11-30T03:57:14.531Z,75.18
2023-11-30T03:59:44.978Z,69.22
2023-11-30T04:02:15.276Z,65.80
2023-11-30T04:04:45.850Z,74.55
2023-11-30T04:07:16.341Z,68.47
2023-11-30T04:09:48.507Z,65.47
2023-11-30T04:12:21.755Z,67.70
2023-11-30T04:14:52.225Z,68.10
2023-11-30T04:17:22.653Z,69.43
2023-11-30T04:19:53.345Z,67.53
2023-11-30T04:22:23.936Z,65.25
2023-11-30T04:24:54.354Z,68.53
2023-11-30T04:27:27.558Z,59.45
2023-11-30T04:29:58.152Z,58.88
2023-11-30T04:32:29.003Z,66.07
2023-11-30T04:34:59.396Z,56.97
2023-11-30T04:37:30.002Z,62.85
2023-11-30T04:40:00.446Z,59.90
2023-11-30T04:42:33.436Z,63.15
2023-11-30T04:45:04.207Z,66.30
2023-11-30T04:47:34.606Z,64.10
2023-11-30T04:50:05.087Z,57.90
2023-11-30T04:52:35.367Z,61.45
2023-11-30T04:55:05.753Z,62.60
2023-11-30T04:57:39.264Z,68.22
2023-11-30T05:00:11.385Z,66.05
2023-11-30T05:02:42.323Z,64.88
2023-11-30T05:05:13.028Z,63.92
2023-11-30T05:07:43.297Z,59.90
2023-11-30T05:10:14.019Z,58.95
2023-11-30T05:12:47.760Z,67.32
2023-11-30T05:15:18.121Z,59.58
2023-11-30T05:17:48.921Z,58.80
2023-11-30T05:20:20.437Z,58.67
2023-11-30T05:22:50.679Z,54.20
2023-11-30T05:25:21.311Z,61.17
2023-11-30T05:27:54.764Z,56.75
2023-11-30T05:30:25.294Z,55.30
2023-11-30T05:32:56.044Z,55.50
2023-11-30T05:35:27.478Z,59.28
2023-11-30T05:37:58.405Z,60.55
2023-11-30T05:40:29.190Z,51.97
2023-11-30T05:43:02.571Z,62.08
2023-11-30T05:45:33.115Z,60.80
2023-11-30T05:48:03.642Z,57.92
2023-11-30T05:50:34.006Z,62.83
2023-11-30T05:53:06.472Z,58.47
2023-11-30T05:55:37.365Z,63.83
2023-11-30T05:58:13.065Z,56.80
2023-11-30T06:00:43.435Z,59.22
2023-11-30T06:03:14.162Z,52.53
2023-11-30T06:05:44.794Z,57.28
2023-11-30T06:08:15.409Z,60.03
2023-11-30T06:10:45.948Z,56.67
2023-11-30T06:13:19.109Z,56.78
2023-11-30T06:15:50.610Z,51.65
2023-11-30T06:18:21.199Z,52.92
2023-11-30T06:20:51.827Z,57.20
2023-11-30T06:23:22.203Z,51.00
2023-11-30T06:25:52.993Z,53.35
2023-11-30T06:28:29.625Z,48.03
2023-11-30T06:31:00.459Z,50.88
2023-11-30T06:33:30.894Z,61.47
2023-11-30T06:36:06.183Z,56.65
2023-11-30T06:38:36.527Z,57.47
2023-11-30T06:41:14.983Z,57.50
2023-11-30T06:43:48.091Z,54.92
2023-11-30T06:46:24.148Z,58.95
2023-11-30T06:48:54.786Z,58.45
2023-11-30T06:51:25.254Z,55.17
2023-11-30T06:53:55.782Z,59.75
2023-11-30T06:56:26.450Z,59.50
2023-11-30T06:58:59.519Z,49.08
2023-11-30T07:01:31.478Z,57.78
2023-11-30T07:04:02.342Z,62.60
2023-11-30T07:06:33.123Z,68.55
2023-11-30T07:09:05.479Z,66.97
2023-11-30T07:11:35.791Z,63.88
2023-11-30T07:14:08.676Z,62.97
2023-11-30T07:16:39.792Z,68.95
2023-11-30T07:19:11.177Z,67.18
2023-11-30T07:21:41.817Z,61.70
2023-11-30T07:24:13.563Z,64.90
2023-11-30T07:26:43.974Z,62.33
2023-11-30T07:29:17.316Z,64.90
2023-11-30T07:31:48.391Z,65.45
2023-11-30T07:34:18.968Z,62.25
2023-11-30T07:36:49.369Z,54.20
2023-11-30T07:39:20.273Z,56.03
2023-11-30T07:41:51.691Z,62.97
2023-11-30T07:44:25.497Z,55.55
2023-11-30T07:46:56.039Z,64.53
2023-11-30T07:49:26.423Z,51.15
2023-11-30T07:51:56.780Z,55.67
2023-11-30T07:54:28.294Z,50.42
2023-11-30T07:56:58.639Z,48.70
2023-11-30T07:59:33.342Z,59.15
2023-11-30T08:02:05.537Z,52.65
2023-11-30T08:04:36.028Z,54.42
2023-11-30T08:07:07.275Z,55.03
2023-11-30T08:09:38.082Z,59.03
2023-11-30T08:12:09.266Z,60.75
2023-11-30T08:14:42.369Z,73.15
2023-11-30T08:17:12.778Z,63.45
2023-11-30T08:19:44.588Z,61.10
2023-11-30T08:22:15.447Z,63.85
2023-11-30T08:24:46.536Z,67.35
2023-11-30T08:27:17.239Z,74.43
2023-11-30T08:29:50.541Z,72.88
2023-11-30T08:32:20.897Z,79.03
2023-11-30T08:34:54.369Z,78.07
2023-11-30T08:37:24.727Z,78.85
2023-11-30T08:39:55.180Z,81.97
2023-11-30T08:42:25.701Z,76.22
2023-11-30T08:44:58.701Z,76.18
2023-11-30T08:47:29.212Z,73.65
2023-11-30T08:49:59.687Z,70.70
2023-11-30T08:52:30.109Z,74.90
2023-11-30T08:55:00.434Z,75.45
2023-11-30T08:57:30.818Z,74.20
2023-11-30T09:00:07.261Z,71.05
2023-11-30T09:02:38.031Z,69.07
2023-11-30T09:05:09.561Z,67.47
2023-11-30T09:07:40.574Z,72.70
2023-11-30T09:10:12.069Z,66.75
2023-11-30T09:12:42.541Z,65.63
2023-11-30T09:15:16.578Z,62.25
2023-11-30T09:17:46.919Z,67.25
2023-11-30T09:20:17.496Z,66.78
2023-11-30T09:22:48.268Z,71.03
2023-11-30T09:25:19.057Z,64.82
2023-11-30T09:27:50.544Z,64.45
2023-11-30T09:30:24.246Z,62.72
2023-11-30T09:32:56.590Z,62.17
2023-11-30T09:35:27.329Z,66.20
2023-11-30T09:38:00.717Z,62.55
2023-11-30T09:40:31.476Z,61.17
2023-11-30T09:43:02.031Z,56.63
2023-11-30T09:45:35.403Z,59.85
2023-11-30T09:48:06.671Z,59.63
2023-11-30T09:50:37.452Z,61.40
2023-11-30T09:53:08.293Z,61.60
2023-11-30T09:55:39.485Z,56.80
2023-11-30T09:58:10.313Z,60.08
2023-11-30T10:00:43.663Z,58.08
2023-11-30T10:03:14.296Z,62.58
2023-11-30T10:05:46.347Z,58.65
2023-11-30T10:08:17.837Z,55.33
2023-11-30T10:10:50.656Z,57.03
2023-11-30T10:13:20.857Z,55.28
2023-11-30T10:15:53.849Z,59.00
2023-11-30T10:18:24.129Z,59.85
2023-11-30T10:20:54.377Z,53.53
2023-11-30T10:23:24.605Z,53.63
2023-11-30T10:25:56.340Z,52.78
2023-11-30T10:28:27.012Z,49.58
2023-11-30T10:31:04.566Z,55.38
2023-11-30T10:33:41.823Z,56.10
2023-11-30T10:36:13.603Z,55.20
2023-11-30T10:38:48.264Z,53.35
2023-11-30T10:41:26.594Z,52.13
2023-11-30T10:44:00.505Z,51.80
2023-11-30T10:46:34.849Z,55.40
2023-11-30T10:49:06.999Z,53.97
2023-11-30T10:51:39.325Z,54.03
2023-11-30T10:54:17.979Z,52.50
2023-11-30T10:56:48.366Z,54.47
2023-11-30T10:59:20.471Z,50.15
2023-11-30T11:01:54.566Z,55.08
2023-11-30T11:04:27.966Z,52.17
2023-11-30T11:07:04.916Z,49.60
2023-11-30T11:09:46.163Z,45.40
2023-11-30T11:12:24.095Z,49.97
2023-11-30T11:14:55.393Z,47.28
2023-11-30T11:17:29.728Z,50.60
2023-11-30T11:20:06.891Z,48.65
2023-11-30T11:22:41.160Z,51.65
2023-11-30T11:25:14.370Z,55.40
2023-11-30T11:27:45.231Z,51.08
2023-11-30T11:30:17.059Z,50.45
2023-11-30T11:32:52.776Z,48.92
2023-11-30T11:35:22.987Z,49.60
2023-11-30T11:37:54.908Z,52.33
2023-11-30T11:40:26.271Z,53.70
2023-11-30T11:42:56.691Z,53.05
2023-11-30T11:45:26.928Z,51.50
2023-11-30T11:48:00.297Z,49.60
2023-11-30T11:50:30.463Z,52.50
2023-11-30T11:53:04.914Z,54.17
2023-11-30T11:55:37.342Z,51.65
2023-11-30T11:58:07.467Z,51.20
2023-11-30T12:00:37.743Z,50.72
2023-11-30T12:03:11.715Z,53.60
2023-11-30T12:05:50.870Z,52.25
2023-11-30T12:08:34.646Z,52.42
